sensor_id;sensor_type;location;lat;lon;timestamp;pressure;altitude;pressure_sealevel;temperature;humidity
818;BME280;391;51.052;6.954;2023-04-07T00:00:15;100706.31;;;8.60;100.00
818;BME280;391;51.052;6.954;2023-04-07T00:02:19;100700.44;;;8.66;100.00
818;BME280;391;51.052;6.954;2023-04-07T00:04:23;100696.31;;;8.71;100.00
818;BME280;391;51.052;6.954;2023-04-07T00:06:27;100705.94;;;8.73;100.00
818;BME280;391;51.052;6.954;2023-04-07T00:08:30;100711.03;;;8.70;100.00
818;BME280;391;51.052;6.954;2023-04-07T00:10:35;100707.31;;;8.64;100.00
818;BME280;391;51.052;6.954;2023-04-07T00:12:38;100709.19;;;8.68;100.00
818;BME280;391;51.052;6.954;2023-04-07T00:14:41;100707.63;;;8.73;100.00
818;BME280;391;51.052;6.954;2023-04-07T00:16:45;100711.13;;;8.73;100.00
818;BME280;391;51.052;6.954;2023-04-07T00:18:48;100715.31;;;8.70;100.00
818;BME280;391;51.052;6.954;2023-04-07T00:20:51;100709.41;;;8.74;100.00
818;BME280;391;51.052;6.954;2023-04-07T00:22:55;100715.47;;;8.74;100.00
818;BME280;391;51.052;6.954;2023-04-07T00:24:58;100710.28;;;8.74;100.00
818;BME280;391;51.052;6.954;2023-04-07T00:27:03;100712.25;;;8.81;100.00
818;BME280;391;51.052;6.954;2023-04-07T00:29:06;100708.06;;;8.85;100.00
818;BME280;391;51.052;6.954;2023-04-07T00:31:10;100704.69;;;8.87;100.00
818;BME280;391;51.052;6.954;2023-04-07T00:33:13;100707.13;;;8.83;100.00
818;BME280;391;51.052;6.954;2023-04-07T00:35:17;100708.44;;;8.72;100.00
818;BME280;391;51.052;6.954;2023-04-07T00:37:21;100703.47;;;8.78;100.00
818;BME280;391;51.052;6.954;2023-04-07T00:39:25;100706.16;;;8.81;100.00
818;BME280;391;51.052;6.954;2023-04-07T00:41:29;100709.16;;;8.91;100.00
818;BME280;391;51.052;6.954;2023-04-07T00:43:34;100698.94;;;8.96;100.00
818;BME280;391;51.052;6.954;2023-04-07T00:45:37;100702.53;;;8.99;100.00
818;BME280;391;51.052;6.954;2023-04-07T00:47:41;100704.25;;;8.99;100.00
818;BME280;391;51.052;6.954;2023-04-07T00:49:45;100701.56;;;8.97;100.00
818;BME280;391;51.052;6.954;2023-04-07T00:51:48;100703.69;;;8.84;100.00
818;BME280;391;51.052;6.954;2023-04-07T00:53:53;100703.91;;;8.90;100.00
818;BME280;391;51.052;6.954;2023-04-07T00:55:57;100695.38;;;8.94;100.00
818;BME280;391;51.052;6.954;2023-04-07T00:58:01;100697.88;;;8.91;100.00
818;BME280;391;51.052;6.954;2023-04-07T01:00:08;100686.59;;;8.90;100.00
818;BME280;391;51.052;6.954;2023-04-07T01:02:17;100700.22;;;8.83;100.00
818;BME280;391;51.052;6.954;2023-04-07T01:04:27;100685.47;;;8.84;100.00
818;BME280;391;51.052;6.954;2023-04-07T01:06:38;100690.81;;;8.87;100.00
818;BME280;391;51.052;6.954;2023-04-07T01:08:50;100688.44;;;8.93;100.00
818;BME280;391;51.052;6.954;2023-04-07T01:10:57;100689.34;;;8.95;100.00
818;BME280;391;51.052;6.954;2023-04-07T01:13:07;100680.72;;;8.96;100.00
818;BME280;391;51.052;6.954;2023-04-07T01:15:14;100674.06;;;9.04;100.00
818;BME280;391;51.052;6.954;2023-04-07T01:17:27;100683.06;;;9.14;100.00
818;BME280;391;51.052;6.954;2023-04-07T01:19:35;100644.25;;;8.94;100.00
818;BME280;391;51.052;6.954;2023-04-07T01:21:41;100685.75;;;9.17;100.00
818;BME280;391;51.052;6.954;2023-04-07T01:23:51;100685.19;;;9.25;100.00
818;BME280;391;51.052;6.954;2023-04-07T01:26:09;100659.94;;;9.23;100.00
818;BME280;391;51.052;6.954;2023-04-07T01:28:38;100678.44;;;9.32;100.00
818;BME280;391;51.052;6.954;2023-04-07T01:30:45;100684.50;;;9.31;100.00
818;BME280;391;51.052;6.954;2023-04-07T01:32:51;100680.94;;;9.29;100.00
818;BME280;391;51.052;6.954;2023-04-07T01:34:56;100691.53;;;9.33;100.00
818;BME280;391;51.052;6.954;2023-04-07T01:37:01;100686.63;;;9.42;100.00
818;BME280;391;51.052;6.954;2023-04-07T01:39:06;100687.78;;;9.52;100.00
818;BME280;391;51.052;6.954;2023-04-07T01:41:10;100680.69;;;9.46;100.00
818;BME280;391;51.052;6.954;2023-04-07T01:43:16;100692.19;;;9.54;100.00
818;BME280;391;51.052;6.954;2023-04-07T01:45:20;100675.66;;;9.52;100.00
818;BME280;391;51.052;6.954;2023-04-07T01:47:26;100673.00;;;9.51;100.00
818;BME280;391;51.052;6.954;2023-04-07T01:49:32;100684.66;;;9.62;100.00
818;BME280;391;51.052;6.954;2023-04-07T01:51:38;100683.50;;;9.54;100.00
818;BME280;391;51.052;6.954;2023-04-07T01:53:42;100678.44;;;9.57;100.00
818;BME280;391;51.052;6.954;2023-04-07T01:55:46;100687.34;;;9.65;100.00
818;BME280;391;51.052;6.954;2023-04-07T01:57:52;100678.72;;;9.66;100.00
818;BME280;391;51.052;6.954;2023-04-07T01:59:56;100683.94;;;9.68;100.00
818;BME280;391;51.052;6.954;2023-04-07T02:02:01;100673.59;;;9.69;100.00
818;BME280;391;51.052;6.954;2023-04-07T02:04:11;100648.72;;;9.50;100.00
818;BME280;391;51.052;6.954;2023-04-07T02:06:18;100680.47;;;9.67;100.00
818;BME280;391;51.052;6.954;2023-04-07T02:08:26;100672.81;;;9.72;100.00
818;BME280;391;51.052;6.954;2023-04-07T02:10:34;100675.34;;;9.70;100.00
818;BME280;391;51.052;6.954;2023-04-07T02:12:40;100669.19;;;9.67;100.00
818;BME280;391;51.052;6.954;2023-04-07T02:14:49;100670.56;;;9.55;100.00
818;BME280;391;51.052;6.954;2023-04-07T02:16:54;100679.59;;;9.67;100.00
818;BME280;391;51.052;6.954;2023-04-07T02:18:58;100676.25;;;9.71;100.00
818;BME280;391;51.052;6.954;2023-04-07T02:21:06;100672.47;;;9.61;100.00
818;BME280;391;51.052;6.954;2023-04-07T02:23:12;100675.06;;;9.61;100.00
818;BME280;391;51.052;6.954;2023-04-07T02:25:23;100675.13;;;9.63;100.00
818;BME280;391;51.052;6.954;2023-04-07T02:27:28;100676.69;;;9.57;100.00
818;BME280;391;51.052;6.954;2023-04-07T02:29:31;100670.91;;;9.66;100.00
818;BME280;391;51.052;6.954;2023-04-07T02:31:35;100681.50;;;9.72;100.00
818;BME280;391;51.052;6.954;2023-04-07T02:33:38;100681.63;;;9.77;100.00
818;BME280;391;51.052;6.954;2023-04-07T02:35:42;100674.78;;;9.79;100.00
818;BME280;391;51.052;6.954;2023-04-07T02:37:47;100681.69;;;9.78;100.00
818;BME280;391;51.052;6.954;2023-04-07T02:39:50;100676.47;;;9.78;100.00
818;BME280;391;51.052;6.954;2023-04-07T02:41:54;100670.28;;;9.75;100.00
818;BME280;391;51.052;6.954;2023-04-07T02:43:58;100671.91;;;9.71;100.00
818;BME280;391;51.052;6.954;2023-04-07T02:46:01;100681.41;;;9.69;100.00
818;BME280;391;51.052;6.954;2023-04-07T02:48:05;100688.34;;;9.69;100.00
818;BME280;391;51.052;6.954;2023-04-07T02:50:09;100686.66;;;9.71;100.00
818;BME280;391;51.052;6.954;2023-04-07T02:52:12;100678.91;;;9.72;100.00
818;BME280;391;51.052;6.954;2023-04-07T02:54:17;100675.16;;;9.64;100.00
818;BME280;391;51.052;6.954;2023-04-07T02:56:21;100694.28;;;9.65;100.00
818;BME280;391;51.052;6.954;2023-04-07T02:58:24;100678.72;;;9.66;100.00
818;BME280;391;51.052;6.954;2023-04-07T03:00:27;100694.44;;;9.69;100.00
818;BME280;391;51.052;6.954;2023-04-07T03:02:37;100652.25;;;9.52;100.00
818;BME280;391;51.052;6.954;2023-04-07T03:04:40;100688.47;;;9.73;100.00
818;BME280;391;51.052;6.954;2023-04-07T03:06:44;100691.94;;;9.74;100.00
818;BME280;391;51.052;6.954;2023-04-07T03:08:49;100686.47;;;9.65;100.00
818;BME280;391;51.052;6.954;2023-04-07T03:10:54;100698.00;;;9.73;100.00
818;BME280;391;51.052;6.954;2023-04-07T03:13:03;100688.25;;;9.66;100.00
818;BME280;391;51.052;6.954;2023-04-07T03:15:09;100693.47;;;9.67;100.00
818;BME280;391;51.052;6.954;2023-04-07T03:17:15;100689.03;;;9.63;100.00
818;BME280;391;51.052;6.954;2023-04-07T03:19:19;100694.88;;;9.56;100.00
818;BME280;391;51.052;6.954;2023-04-07T03:21:24;100696.66;;;9.57;100.00
818;BME280;391;51.052;6.954;2023-04-07T03:23:30;100689.31;;;9.45;100.00
818;BME280;391;51.052;6.954;2023-04-07T03:25:34;100692.19;;;9.53;100.00
818;BME280;391;51.052;6.954;2023-04-07T03:27:40;100688.53;;;9.48;100.00
818;BME280;391;51.052;6.954;2023-04-07T03:29:46;100692.19;;;9.54;100.00
818;BME280;391;51.052;6.954;2023-04-07T03:31:51;100695.59;;;9.52;100.00
818;BME280;391;51.052;6.954;2023-04-07T03:33:58;100694.88;;;9.56;100.00
818;BME280;391;51.052;6.954;2023-04-07T03:36:01;100694.16;;;9.60;100.00
818;BME280;391;51.052;6.954;2023-04-07T03:38:05;100684.50;;;9.57;100.00
818;BME280;391;51.052;6.954;2023-04-07T03:40:11;100693.34;;;9.63;100.00
818;BME280;391;51.052;6.954;2023-04-07T03:42:15;100653.41;;;9.35;100.00
818;BME280;391;51.052;6.954;2023-04-07T03:44:20;100691.56;;;9.62;100.00
818;BME280;391;51.052;6.954;2023-04-07T03:46:24;100683.72;;;9.60;100.00
818;BME280;391;51.052;6.954;2023-04-07T03:48:29;100692.50;;;9.64;100.00
818;BME280;391;51.052;6.954;2023-04-07T03:50:40;100699.91;;;9.51;100.00
818;BME280;391;51.052;6.954;2023-04-07T03:52:48;100693.59;;;9.43;100.00
818;BME280;391;51.052;6.954;2023-04-07T03:54:58;100698.72;;;9.42;100.00
818;BME280;391;51.052;6.954;2023-04-07T03:57:06;100697.81;;;9.40;100.00
818;BME280;391;51.052;6.954;2023-04-07T03:59:15;100698.84;;;9.45;100.00
818;BME280;391;51.052;6.954;2023-04-07T04:01:29;100702.38;;;9.47;100.00
818;BME280;391;51.052;6.954;2023-04-07T04:03:40;100699.78;;;9.47;100.00
818;BME280;391;51.052;6.954;2023-04-07T04:05:58;100704.69;;;9.38;100.00
818;BME280;391;51.052;6.954;2023-04-07T04:08:05;100693.34;;;9.36;100.00
818;BME280;391;51.052;6.954;2023-04-07T04:10:11;100704.03;;;9.45;100.00
818;BME280;391;51.052;6.954;2023-04-07T04:12:19;100704.09;;;9.46;100.00
818;BME280;391;51.052;6.954;2023-04-07T04:14:41;100710.66;;;9.35;100.00
818;BME280;391;51.052;6.954;2023-04-07T04:16:47;100704.59;;;9.35;100.00
818;BME280;391;51.052;6.954;2023-04-07T04:19:02;100706.34;;;9.36;100.00
818;BME280;391;51.052;6.954;2023-04-07T04:21:07;100698.84;;;9.45;100.00
818;BME280;391;51.052;6.954;2023-04-07T04:23:13;100709.41;;;9.49;100.00
818;BME280;391;51.052;6.954;2023-04-07T04:25:18;100693.53;;;9.42;100.00
818;BME280;391;51.052;6.954;2023-04-07T04:27:27;100715.44;;;9.48;100.00
818;BME280;391;51.052;6.954;2023-04-07T04:29:39;100710.91;;;9.43;100.00
818;BME280;391;51.052;6.954;2023-04-07T04:31:46;100723.88;;;9.41;100.00
818;BME280;391;51.052;6.954;2023-04-07T04:33:50;100721.44;;;9.46;100.00
818;BME280;391;51.052;6.954;2023-04-07T04:35:55;100719.75;;;9.48;100.00
818;BME280;391;51.052;6.954;2023-04-07T04:38:00;100728.41;;;9.47;100.00
818;BME280;391;51.052;6.954;2023-04-07T04:40:06;100731.13;;;9.50;100.00
818;BME280;391;51.052;6.954;2023-04-07T04:42:12;100728.72;;;9.56;100.00
818;BME280;391;51.052;6.954;2023-04-07T04:44:16;100726.22;;;9.61;100.00
818;BME280;391;51.052;6.954;2023-04-07T04:46:19;100727.91;;;9.58;100.00
818;BME280;391;51.052;6.954;2023-04-07T04:48:24;100729.50;;;9.53;100.00
818;BME280;391;51.052;6.954;2023-04-07T04:50:29;100735.53;;;9.52;100.00
818;BME280;391;51.052;6.954;2023-04-07T04:52:32;100738.03;;;9.49;100.00
818;BME280;391;51.052;6.954;2023-04-07T04:54:36;100732.44;;;9.37;100.00
818;BME280;391;51.052;6.954;2023-04-07T04:56:40;100740.44;;;9.43;100.00
818;BME280;391;51.052;6.954;2023-04-07T04:58:44;100743.94;;;9.44;100.00
818;BME280;391;51.052;6.954;2023-04-07T05:01:07;100748.25;;;9.43;100.00
818;BME280;391;51.052;6.954;2023-04-07T05:03:15;100739.19;;;9.32;100.00
818;BME280;391;51.052;6.954;2023-04-07T05:05:24;100751.56;;;9.39;100.00
818;BME280;391;51.052;6.954;2023-04-07T05:07:30;100742.09;;;9.41;100.00
818;BME280;391;51.052;6.954;2023-04-07T05:09:34;100751.56;;;9.39;100.00
818;BME280;391;51.052;6.954;2023-04-07T05:11:37;100736.78;;;9.38;100.00
818;BME280;391;51.052;6.954;2023-04-07T05:13:42;100743.94;;;9.19;100.00
818;BME280;391;51.052;6.954;2023-04-07T05:15:46;100751.16;;;9.27;100.00
818;BME280;391;51.052;6.954;2023-04-07T05:17:49;100754.06;;;9.36;100.00
818;BME280;391;51.052;6.954;2023-04-07T05:19:57;100756.41;;;9.29;100.00
818;BME280;391;51.052;6.954;2023-04-07T05:22:09;100756.66;;;9.36;100.00
818;BME280;391;51.052;6.954;2023-04-07T05:24:24;100761.69;;;9.32;100.00
818;BME280;391;51.052;6.954;2023-04-07T05:26:31;100758.69;;;9.20;100.00
818;BME280;391;51.052;6.954;2023-04-07T05:28:38;100764.84;;;9.22;100.00
818;BME280;391;51.052;6.954;2023-04-07T05:30:48;100767.56;;;9.25;100.00
818;BME280;391;51.052;6.954;2023-04-07T05:32:53;100761.59;;;9.29;100.00
818;BME280;391;51.052;6.954;2023-04-07T05:35:09;100763.69;;;9.14;100.00
818;BME280;391;51.052;6.954;2023-04-07T05:37:19;100768.84;;;9.12;100.00
818;BME280;391;51.052;6.954;2023-04-07T05:39:25;100766.13;;;9.09;100.00
818;BME280;391;51.052;6.954;2023-04-07T05:41:30;100783.50;;;9.10;100.00
818;BME280;391;51.052;6.954;2023-04-07T05:43:35;100773.78;;;9.04;100.00
818;BME280;391;51.052;6.954;2023-04-07T05:45:40;100746.44;;;8.92;100.00
818;BME280;391;51.052;6.954;2023-04-07T05:47:45;100734.16;;;8.88;100.00
818;BME280;391;51.052;6.954;2023-04-07T05:49:55;100770.78;;;9.18;100.00
818;BME280;391;51.052;6.954;2023-04-07T05:51:58;100772.66;;;9.22;100.00
818;BME280;391;51.052;6.954;2023-04-07T05:54:02;100777.56;;;9.14;100.00
818;BME280;391;51.052;6.954;2023-04-07T05:56:07;100784.28;;;9.08;100.00
818;BME280;391;51.052;6.954;2023-04-07T05:58:21;100780.78;;;9.07;100.00
818;BME280;391;51.052;6.954;2023-04-07T06:00:28;100783.69;;;9.16;100.00
818;BME280;391;51.052;6.954;2023-04-07T06:02:43;100784.50;;;9.14;100.00
818;BME280;391;51.052;6.954;2023-04-07T06:04:51;100791.38;;;9.12;100.00
818;BME280;391;51.052;6.954;2023-04-07T06:06:55;100787.81;;;9.10;100.00
818;BME280;391;51.052;6.954;2023-04-07T06:08:58;100790.50;;;9.13;100.00
818;BME280;391;51.052;6.954;2023-04-07T06:11:02;100761.47;;;9.00;100.00
818;BME280;391;51.052;6.954;2023-04-07T06:13:06;100796.00;;;9.20;100.00
818;BME280;391;51.052;6.954;2023-04-07T06:15:10;100791.47;;;9.15;100.00
818;BME280;391;51.052;6.954;2023-04-07T06:17:14;100802.91;;;9.20;100.00
818;BME280;391;51.052;6.954;2023-04-07T06:19:17;100802.00;;;9.19;100.00
818;BME280;391;51.052;6.954;2023-04-07T06:21:20;100798.56;;;9.19;100.00
818;BME280;391;51.052;6.954;2023-04-07T06:23:24;100807.22;;;9.19;100.00
818;BME280;391;51.052;6.954;2023-04-07T06:25:27;100805.97;;;9.08;100.00
818;BME280;391;51.052;6.954;2023-04-07T06:27:31;100810.09;;;9.03;100.00
818;BME280;391;51.052;6.954;2023-04-07T06:29:36;100706.00;;;8.51;100.00
818;BME280;391;51.052;6.954;2023-04-07T06:31:40;100809.69;;;9.15;100.00
818;BME280;391;51.052;6.954;2023-04-07T06:33:44;100814.19;;;9.20;100.00
818;BME280;391;51.052;6.954;2023-04-07T06:35:47;100807.50;;;9.27;100.00
818;BME280;391;51.052;6.954;2023-04-07T06:37:51;100811.59;;;9.20;100.00
818;BME280;391;51.052;6.954;2023-04-07T06:39:56;100814.09;;;9.17;100.00
818;BME280;391;51.052;6.954;2023-04-07T06:41:59;100819.38;;;9.19;100.00
818;BME280;391;51.052;6.954;2023-04-07T06:44:03;100817.72;;;9.22;100.00
818;BME280;391;51.052;6.954;2023-04-07T06:46:10;100820.91;;;9.14;100.00
818;BME280;391;51.052;6.954;2023-04-07T06:48:13;100831.97;;;9.08;100.00
818;BME280;391;51.052;6.954;2023-04-07T06:50:17;100829.19;;;9.03;100.00
818;BME280;391;51.052;6.954;2023-04-07T06:52:23;100830.88;;;9.01;100.00
818;BME280;391;51.052;6.954;2023-04-07T06:54:26;100831.78;;;9.03;100.00
818;BME280;391;51.052;6.954;2023-04-07T06:56:29;100836.25;;;9.06;100.00
818;BME280;391;51.052;6.954;2023-04-07T06:58:33;100819.53;;;8.99;100.00
818;BME280;391;51.052;6.954;2023-04-07T07:00:37;100832.19;;;9.14;100.00
818;BME280;391;51.052;6.954;2023-04-07T07:02:42;100834.97;;;9.19;100.00
818;BME280;391;51.052;6.954;2023-04-07T07:04:46;100842.59;;;9.14;100.00
818;BME280;391;51.052;6.954;2023-04-07T07:06:49;100838.44;;;9.19;100.00
818;BME280;391;51.052;6.954;2023-04-07T07:08:52;100821.25;;;8.99;100.00
818;BME280;391;51.052;6.954;2023-04-07T07:10:56;100838.41;;;9.18;100.00
818;BME280;391;51.052;6.954;2023-04-07T07:12:59;100847.13;;;9.20;100.00
818;BME280;391;51.052;6.954;2023-04-07T07:15:06;100843.69;;;9.21;100.00
818;BME280;391;51.052;6.954;2023-04-07T07:17:09;100856.72;;;9.21;100.00
818;BME280;391;51.052;6.954;2023-04-07T07:19:14;100849.13;;;9.27;100.00
818;BME280;391;51.052;6.954;2023-04-07T07:21:18;100851.84;;;9.30;100.00
818;BME280;391;51.052;6.954;2023-04-07T07:23:21;100852.50;;;9.24;100.00
818;BME280;391;51.052;6.954;2023-04-07T07:25:24;100853.22;;;9.20;100.00
818;BME280;391;51.052;6.954;2023-04-07T07:27:28;100851.63;;;9.24;100.00
818;BME280;391;51.052;6.954;2023-04-07T07:29:32;100859.63;;;9.30;100.00
818;BME280;391;51.052;6.954;2023-04-07T07:31:35;100852.63;;;9.27;100.00
818;BME280;391;51.052;6.954;2023-04-07T07:33:39;100827.69;;;9.10;100.00
818;BME280;391;51.052;6.954;2023-04-07T07:35:44;100864.50;;;9.21;100.00
818;BME280;391;51.052;6.954;2023-04-07T07:37:47;100867.22;;;9.24;100.00
818;BME280;391;51.052;6.954;2023-04-07T07:39:51;100867.13;;;9.21;100.00
818;BME280;391;51.052;6.954;2023-04-07T07:41:54;100865.63;;;9.27;100.00
818;BME280;391;51.052;6.954;2023-04-07T07:43:58;100872.59;;;9.28;100.00
818;BME280;391;51.052;6.954;2023-04-07T07:46:01;100878.56;;;9.26;100.00
818;BME280;391;51.052;6.954;2023-04-07T07:48:05;100874.00;;;9.19;100.00
818;BME280;391;51.052;6.954;2023-04-07T07:50:09;100879.53;;;9.28;100.00
818;BME280;391;51.052;6.954;2023-04-07T07:52:15;100880.16;;;9.22;100.00
818;BME280;391;51.052;6.954;2023-04-07T07:54:19;100855.88;;;8.98;100.00
818;BME280;391;51.052;6.954;2023-04-07T07:56:22;100881.13;;;9.24;100.00
818;BME280;391;51.052;6.954;2023-04-07T07:58:25;100891.63;;;9.27;100.00
818;BME280;391;51.052;6.954;2023-04-07T08:00:29;100881.75;;;9.41;100.00
818;BME280;391;51.052;6.954;2023-04-07T08:02:32;100898.34;;;9.44;100.00
818;BME280;391;51.052;6.954;2023-04-07T08:04:37;100883.38;;;9.39;99.91
818;BME280;391;51.052;6.954;2023-04-07T08:06:41;100894.34;;;9.30;100.00
818;BME280;391;51.052;6.954;2023-04-07T08:08:45;100802.88;;;8.71;100.00
818;BME280;391;51.052;6.954;2023-04-07T08:10:49;100894.81;;;9.19;100.00
818;BME280;391;51.052;6.954;2023-04-07T08:12:52;100874.63;;;9.13;100.00
818;BME280;391;51.052;6.954;2023-04-07T08:14:56;100897.00;;;9.32;100.00
818;BME280;391;51.052;6.954;2023-04-07T08:16:59;100903.31;;;9.38;100.00
818;BME280;391;51.052;6.954;2023-04-07T08:19:02;100896.50;;;9.42;100.00
818;BME280;391;51.052;6.954;2023-04-07T08:21:06;100904.47;;;9.46;100.00
818;BME280;391;51.052;6.954;2023-04-07T08:23:09;100905.88;;;9.37;100.00
818;BME280;391;51.052;6.954;2023-04-07T08:25:14;100911.00;;;9.35;100.00
818;BME280;391;51.052;6.954;2023-04-07T08:27:17;100908.34;;;9.34;100.00
818;BME280;391;51.052;6.954;2023-04-07T08:29:22;100912.66;;;9.33;100.00
818;BME280;391;51.052;6.954;2023-04-07T08:31:25;100906.44;;;9.28;100.00
818;BME280;391;51.052;6.954;2023-04-07T08:33:29;100920.47;;;9.33;100.00
818;BME280;391;51.052;6.954;2023-04-07T08:35:32;100913.34;;;9.28;100.00
818;BME280;391;51.052;6.954;2023-04-07T08:37:37;100912.06;;;9.40;100.00
818;BME280;391;51.052;6.954;2023-04-07T08:39:41;100914.78;;;9.43;100.00
818;BME280;391;51.052;6.954;2023-04-07T08:41:46;100926.13;;;9.45;100.00
818;BME280;391;51.052;6.954;2023-04-07T08:43:51;100921.44;;;9.61;100.00
818;BME280;391;51.052;6.954;2023-04-07T08:45:56;100925.56;;;10.03;100.00
818;BME280;391;51.052;6.954;2023-04-07T08:48:03;100927.25;;;10.26;100.00
818;BME280;391;51.052;6.954;2023-04-07T08:50:13;100929.72;;;10.48;99.93
818;BME280;391;51.052;6.954;2023-04-07T08:52:21;100934.19;;;10.52;99.24
818;BME280;391;51.052;6.954;2023-04-07T08:54:25;100930.44;;;10.71;99.20
818;BME280;391;51.052;6.954;2023-04-07T08:56:31;100924.22;;;10.94;99.39
818;BME280;391;51.052;6.954;2023-04-07T08:58:38;100900.88;;;10.71;97.49
818;BME280;391;51.052;6.954;2023-04-07T09:00:42;100933.59;;;10.89;96.75
818;BME280;391;51.052;6.954;2023-04-07T09:02:47;100933.56;;;10.88;96.24
818;BME280;391;51.052;6.954;2023-04-07T09:04:52;100937.22;;;10.66;95.17
818;BME280;391;51.052;6.954;2023-04-07T09:06:56;100939.97;;;10.44;94.51
818;BME280;391;51.052;6.954;2023-04-07T09:08:59;100941.19;;;10.28;95.05
818;BME280;391;51.052;6.954;2023-04-07T09:11:03;100935.09;;;10.28;95.41
818;BME280;391;51.052;6.954;2023-04-07T09:13:07;100949.41;;;10.14;95.24
818;BME280;391;51.052;6.954;2023-04-07T09:15:12;100944.78;;;10.06;95.54
818;BME280;391;51.052;6.954;2023-04-07T09:17:15;100952.28;;;9.97;95.47
818;BME280;391;51.052;6.954;2023-04-07T09:19:18;100947.09;;;9.99;95.86
818;BME280;391;51.052;6.954;2023-04-07T09:21:22;100940.66;;;9.88;96.15
818;BME280;391;51.052;6.954;2023-04-07T09:23:30;100958.38;;;9.98;96.44
818;BME280;391;51.052;6.954;2023-04-07T09:25:33;100956.50;;;9.94;96.60
818;BME280;391;51.052;6.954;2023-04-07T09:27:37;100951.59;;;10.03;96.14
818;BME280;391;51.052;6.954;2023-04-07T09:29:42;100951.88;;;10.10;96.24
818;BME280;391;51.052;6.954;2023-04-07T09:31:48;100902.72;;;9.71;96.17
818;BME280;391;51.052;6.954;2023-04-07T09:33:53;100952.50;;;10.03;96.53
818;BME280;391;51.052;6.954;2023-04-07T09:35:56;100953.28;;;10.01;97.01
818;BME280;391;51.052;6.954;2023-04-07T09:38:01;100956.44;;;9.92;96.77
818;BME280;391;51.052;6.954;2023-04-07T09:40:07;100957.31;;;9.93;96.47
818;BME280;391;51.052;6.954;2023-04-07T09:42:10;100956.59;;;9.97;96.42
818;BME280;391;51.052;6.954;2023-04-07T09:44:14;100957.59;;;10.00;96.90
818;BME280;391;51.052;6.954;2023-04-07T09:46:19;100967.34;;;10.06;96.37
818;BME280;391;51.052;6.954;2023-04-07T09:48:25;100970.25;;;10.14;96.53
818;BME280;391;51.052;6.954;2023-04-07T09:50:33;100963.00;;;10.06;96.29
818;BME280;391;51.052;6.954;2023-04-07T09:52:50;100963.91;;;10.07;96.46
818;BME280;391;51.052;6.954;2023-04-07T09:54:55;100964.03;;;10.11;96.76
818;BME280;391;51.052;6.954;2023-04-07T09:57:00;100971.75;;;10.08;96.73
818;BME280;391;51.052;6.954;2023-04-07T09:59:07;100963.81;;;10.04;96.70
818;BME280;391;51.052;6.954;2023-04-07T10:01:15;100936.25;;;9.85;96.87
818;BME280;391;51.052;6.954;2023-04-07T10:03:19;100971.66;;;10.05;96.45
818;BME280;391;51.052;6.954;2023-04-07T10:05:24;100963.69;;;10.01;96.98
818;BME280;391;51.052;6.954;2023-04-07T10:07:27;100968.06;;;10.02;96.44
818;BME280;391;51.052;6.954;2023-04-07T10:09:31;100964.31;;;9.94;96.99
818;BME280;391;51.052;6.954;2023-04-07T10:11:34;100964.53;;;10.00;97.32
818;BME280;391;51.052;6.954;2023-04-07T10:13:39;100959.03;;;9.92;97.24
818;BME280;391;51.052;6.954;2023-04-07T10:15:42;100969.34;;;9.89;97.08
818;BME280;391;51.052;6.954;2023-04-07T10:17:46;100970.09;;;9.85;97.45
818;BME280;391;51.052;6.954;2023-04-07T10:19:51;100975.91;;;9.78;97.18
818;BME280;391;51.052;6.954;2023-04-07T10:21:56;100979.22;;;9.74;97.26
818;BME280;391;51.052;6.954;2023-04-07T10:24:07;100980.34;;;9.81;97.35
818;BME280;391;51.052;6.954;2023-04-07T10:26:14;100975.44;;;9.90;97.69
818;BME280;391;51.052;6.954;2023-04-07T10:28:20;100973.44;;;9.83;97.86
818;BME280;391;51.052;6.954;2023-04-07T10:30:28;100976.34;;;9.90;97.89
818;BME280;391;51.052;6.954;2023-04-07T10:32:45;100983.94;;;9.84;98.02
818;BME280;391;51.052;6.954;2023-04-07T10:34:56;100972.53;;;9.81;97.58
818;BME280;391;51.052;6.954;2023-04-07T10:37:12;100970.19;;;9.88;97.96
818;BME280;391;51.052;6.954;2023-04-07T10:39:19;100989.13;;;10.08;97.65
818;BME280;391;51.052;6.954;2023-04-07T10:41:33;100985.63;;;10.07;97.29
818;BME280;391;51.052;6.954;2023-04-07T10:43:39;100997.81;;;10.08;96.96
818;BME280;391;51.052;6.954;2023-04-07T10:45:55;100987.34;;;10.07;97.06
818;BME280;391;51.052;6.954;2023-04-07T10:48:10;100998.13;;;10.16;96.96
818;BME280;391;51.052;6.954;2023-04-07T10:50:16;100991.88;;;10.13;96.92
818;BME280;391;51.052;6.954;2023-04-07T10:52:24;100994.53;;;10.65;100.00
818;BME280;391;51.052;6.954;2023-04-07T10:54:27;100947.72;;;10.68;98.17
818;BME280;391;51.052;6.954;2023-04-07T10:59:13;100995.34;;;10.62;95.59
818;BME280;391;51.052;6.954;2023-04-07T11:01:20;100956.72;;;10.25;94.94
818;BME280;391;51.052;6.954;2023-04-07T11:03:24;100999.91;;;10.42;94.25
818;BME280;391;51.052;6.954;2023-04-07T11:05:28;101004.13;;;10.39;94.46
818;BME280;391;51.052;6.954;2023-04-07T11:07:52;101001.41;;;10.36;93.91
818;BME280;391;51.052;6.954;2023-04-07T11:10:09;100988.28;;;10.33;94.04
818;BME280;391;51.052;6.954;2023-04-07T11:12:21;101001.97;;;10.52;94.53
818;BME280;391;51.052;6.954;2023-04-07T11:14:25;100963.72;;;10.26;94.19
818;BME280;391;51.052;6.954;2023-04-07T11:16:35;100992.91;;;10.41;94.13
818;BME280;391;51.052;6.954;2023-04-07T11:18:39;100971.03;;;10.13;93.26
818;BME280;391;51.052;6.954;2023-04-07T11:20:45;101008.81;;;10.24;93.71
818;BME280;391;51.052;6.954;2023-04-07T11:22:59;101012.06;;;10.18;93.69
818;BME280;391;51.052;6.954;2023-04-07T11:25:04;101004.81;;;10.33;93.86
818;BME280;391;51.052;6.954;2023-04-07T11:27:22;101004.41;;;10.48;93.77
818;BME280;391;51.052;6.954;2023-04-07T11:29:27;101001.53;;;10.40;93.20
818;BME280;391;51.052;6.954;2023-04-07T11:31:31;101008.53;;;10.41;92.77
818;BME280;391;51.052;6.954;2023-04-07T11:33:34;101011.53;;;10.53;92.77
818;BME280;391;51.052;6.954;2023-04-07T11:35:46;100950.59;;;10.23;92.74
818;BME280;391;51.052;6.954;2023-04-07T11:37:56;101018.47;;;10.53;92.56